Time;durP1;ratioP1;P1;durP2;ratioP2;P2;SDS_P1;SDS_P2;PMS_P1;PMS_P2;Temp;Humidity;BMP_temperature;BMP_pressure;BME280_temperature;BME280_humidity;BME280_pressure;Samples;Min_cycle;Max_cycle;Signal;HPM_P1;HPM_P2
2021/01/30 00:02:11;;;;;;;2.72;1.55;;;18.00;53.40;;;;;;5085086;28;20169;-60
2021/01/30 00:04:37;;;;;;;3.47;1.45;;;18.00;53.40;;;;;;5085260;28;20223;-60
2021/01/30 00:07:03;;;;;;;1.83;1.23;;;18.00;53.30;;;;;;5085114;28;20185;-60
2021/01/30 00:09:28;;;;;;;2.47;1.33;;;17.90;53.40;;;;;;5067288;28;20173;-61
2021/01/30 00:11:57;;;;;;;2.78;1.30;;;17.90;53.40;;;;;;5084964;28;20574;-61
2021/01/30 00:14:27;;;;;;;1.40;1.08;;;17.90;53.40;;;;;;5067464;28;20208;-62
2021/01/30 00:16:52;;;;;;;2.70;1.63;;;17.90;53.40;;;;;;5067087;28;20178;-61
2021/01/30 00:19:18;;;;;;;3.47;1.60;;;17.90;53.40;;;;;;5085133;28;20226;-61
2021/01/30 00:21:51;;;;;;;2.35;1.38;;;17.90;53.40;;;;;;5084803;28;20615;-61
2021/01/30 00:24:17;;;;;;;1.92;1.05;;;17.90;53.40;;;;;;5085160;28;20176;-61
2021/01/30 00:26:42;;;;;;;1.95;1.10;;;17.80;53.40;;;;;;5084713;28;20631;-60
2021/01/30 00:29:10;;;;;;;2.05;1.50;;;17.80;53.30;;;;;;5084758;28;20667;-61
2021/01/30 00:31:36;;;;;;;2.40;1.25;;;17.80;53.40;;;;;;5066328;28;20577;-60
2021/01/30 00:34:01;;;;;;;2.80;1.40;;;17.80;53.40;;;;;;5084528;28;20181;-60
2021/01/30 00:36:28;;;;;;;2.40;1.42;;;17.80;53.40;;;;;;5084453;28;20637;-60
2021/01/30 00:38:53;;;;;;;2.13;1.50;;;17.80;53.40;;;;;;5084708;28;20173;-60
2021/01/30 00:41:19;;;;;;;2.67;1.67;;;17.80;53.40;;;;;;5084403;28;20173;-61
2021/01/30 00:43:45;;;;;;;3.22;1.30;;;17.80;53.40;;;;;;5066775;28;20616;-60
2021/01/30 00:46:10;;;;;;;2.58;1.40;;;17.70;53.30;;;;;;5084560;28;20188;-60
2021/01/30 00:48:36;;;;;;;2.42;1.30;;;17.70;53.40;;;;;;5084500;28;20639;-61
2021/01/30 00:51:01;;;;;;;1.88;1.50;;;17.70;53.30;;;;;;5084652;28;20559;-61
2021/01/30 00:53:27;;;;;;;1.88;1.50;;;17.70;53.40;;;;;;5084517;28;20282;-61
2021/01/30 00:55:52;;;;;;;2.85;1.65;;;17.70;53.40;;;;;;5084358;28;20166;-60
2021/01/30 00:58:18;;;;;;;4.07;1.58;;;17.70;53.30;;;;;;5084640;28;20257;-59
2021/01/30 01:00:43;;;;;;;1.50;1.40;;;17.70;53.40;;;;;;5084464;28;20623;-60
2021/01/30 01:03:11;;;;;;;2.20;1.42;;;17.70;53.40;;;;;;5084554;28;20511;-57
2021/01/30 01:05:37;;;;;;;2.05;1.85;;;17.60;53.60;;;;;;5084549;28;20173;-59
2021/01/30 01:08:02;;;;;;;2.38;1.40;;;17.60;53.30;;;;;;5084389;28;20170;-60
2021/01/30 01:10:28;;;;;;;1.52;1.35;;;17.60;53.30;;;;;;5084082;28;20169;-60
2021/01/30 01:12:53;;;;;;;2.38;1.55;;;17.60;53.30;;;;;;5084286;28;20192;-59
2021/01/30 01:15:19;;;;;;;1.65;1.38;;;17.60;53.30;;;;;;5084499;28;20178;-58
2021/01/30 01:17:45;;;;;;;1.95;1.60;;;17.60;53.30;;;;;;5084461;28;20201;-61
2021/01/30 01:20:13;;;;;;;1.83;1.50;;;17.60;53.30;;;;;;5084526;28;20224;-60
2021/01/30 01:22:38;;;;;;;2.13;1.30;;;17.60;53.30;;;;;;5084421;28;20227;-60
2021/01/30 01:25:04;;;;;;;1.83;1.33;;;17.50;53.20;;;;;;5084293;28;20181;-60
2021/01/30 01:27:30;;;;;;;1.48;1.38;;;17.60;53.30;;;;;;5084308;28;20254;-60
2021/01/30 01:29:56;;;;;;;1.58;1.48;;;17.50;53.20;;;;;;5083702;28;20173;-60
2021/01/30 01:32:23;;;;;;;1.73;1.45;;;17.50;53.20;;;;;;5083925;28;20217;-54
2021/01/30 01:34:49;;;;;;;2.85;1.40;;;17.50;53.30;;;;;;5084040;28;20300;-61
2021/01/30 01:37:14;;;;;;;2.35;1.48;;;17.50;53.30;;;;;;5083926;28;20284;-60
2021/01/30 01:39:40;;;;;;;1.73;1.40;;;17.50;53.20;;;;;;5084048;28;20174;-60
2021/01/30 01:42:15;;;;;;;1.52;1.27;;;17.50;53.30;;;;;;5083811;28;20627;-61
2021/01/30 01:44:42;;;;;;;1.35;1.20;;;17.50;53.30;;;;;;5050013;28;20180;-61
2021/01/30 01:47:19;;;;;;;1.50;1.25;;;17.50;53.30;;;;;;5083778;28;20211;-61
2021/01/30 01:49:44;;;;;;;2.10;1.40;;;17.50;53.20;;;;;;5050558;28;20223;-61
2021/01/30 01:52:29;;;;;;;2.30;1.40;;;17.50;53.20;;;;;;5067800;28;20209;-61
2021/01/30 01:54:59;;;;;;;2.20;1.60;;;17.40;53.20;;;;;;5069651;28;20654;-59
2021/01/30 01:57:25;;;;;;;2.00;1.23;;;17.50;53.20;;;;;;5088139;28;20535;-60
2021/01/30 01:59:52;;;;;;;1.65;1.10;;;17.40;53.20;;;;;;5053078;28;20174;-60
2021/01/30 02:02:18;;;;;;;1.35;1.25;;;17.40;53.20;;;;;;5069412;28;20596;-58
2021/01/30 02:04:50;;;;;;;1.50;1.15;;;17.40;53.20;;;;;;5069618;28;20169;-59
2021/01/30 02:07:15;;;;;;;2.38;1.33;;;17.40;53.20;;;;;;5069963;28;20197;-59
2021/01/30 02:09:41;;;;;;;2.20;1.20;;;17.30;53.20;;;;;;5069444;28;20235;-59
2021/01/30 02:12:09;;;;;;;3.15;1.45;;;17.40;53.20;;;;;;5087378;28;20600;-59
2021/01/30 02:14:36;;;;;;;1.58;1.20;;;17.40;53.20;;;;;;5052889;28;20178;-58
2021/01/30 02:17:28;;;;;;;2.05;1.00;;;17.30;53.20;;;;;;5052998;28;20198;-60
2021/01/30 02:20:27;;;;;;;1.70;1.30;;;17.30;53.20;;;;;;5048048;28;20186;-60
2021/01/30 02:23:11;;;;;;;2.38;1.20;;;17.40;53.20;;;;;;5087295;28;20174;-60
2021/01/30 02:25:55;;;;;;;1.70;1.13;;;17.40;53.20;;;;;;5087195;28;20173;-60
2021/01/30 02:28:27;;;;;;;1.05;0.95;;;17.30;53.20;;;;;;5086937;28;20189;-60
2021/01/30 02:31:11;;;;;;;1.20;1.10;;;17.30;53.10;;;;;;5035126;28;20694;-55
2021/01/30 02:33:40;;;;;;;1.90;1.42;;;17.20;53.10;;;;;;5086773;28;20544;-60
2021/01/30 02:36:21;;;;;;;1.45;1.35;;;17.30;53.10;;;;;;5086818;28;20173;-58
2021/01/30 02:38:58;;;;;;;1.20;1.02;;;17.20;53.10;;;;;;5070440;28;20169;-61
2021/01/30 02:41:30;;;;;;;1.38;1.17;;;17.30;53.20;;;;;;5053345;28;20166;-60
2021/01/30 02:43:57;;;;;;;1.90;1.40;;;17.30;53.20;;;;;;5069095;28;20180;-61
2021/01/30 02:46:26;;;;;;;1.02;1.00;;;17.20;53.10;;;;;;5052265;28;20205;-62
2021/01/30 02:48:54;;;;;;;1.20;0.90;;;17.20;53.10;;;;;;5052426;28;21002;-60
2021/01/30 02:51:22;;;;;;;1.30;1.05;;;17.20;53.10;;;;;;5052403;28;20194;-59
2021/01/30 02:53:53;;;;;;;1.02;0.93;;;17.20;53.10;;;;;;5051880;28;20185;-57
2021/01/30 02:56:19;;;;;;;2.20;1.20;;;17.20;53.10;;;;;;5052704;28;20239;-58
2021/01/30 02:58:50;;;;;;;2.30;1.00;;;17.20;53.20;;;;;;5086664;28;20193;-58
2021/01/30 03:01:16;;;;;;;1.00;0.90;;;17.20;53.10;;;;;;5068510;28;20185;-59
2021/01/30 03:03:41;;;;;;;1.35;1.10;;;17.20;53.10;;;;;;5085226;28;20627;-57
2021/01/30 03:06:14;;;;;;;1.13;1.00;;;17.20;53.10;;;;;;5068598;28;20635;-61
2021/01/30 03:08:45;;;;;;;0.90;0.90;;;17.20;53.10;;;;;;5068268;28;20538;-60
2021/01/30 03:11:26;;;;;;;1.52;1.10;;;17.10;53.10;;;;;;5068253;28;20209;-61
2021/01/30 03:14:07;;;;;;;1.02;1.02;;;17.10;53.10;;;;;;5052620;28;20193;-58
2021/01/30 03:16:36;;;;;;;2.40;1.30;;;17.20;53.10;;;;;;5053417;28;20170;-60
2021/01/30 03:19:12;;;;;;;1.10;1.00;;;17.20;53.70;;;;;;5051592;28;20173;-61
2021/01/30 03:21:38;;;;;;;1.70;1.15;;;17.10;53.10;;;;;;5086095;28;20312;-61
2021/01/30 03:24:04;;;;;;;1.63;1.00;;;17.10;53.10;;;;;;5067999;28;20680;-61
2021/01/30 03:26:30;;;;;;;1.02;1.02;;;17.10;53.00;;;;;;5067971;28;20189;-60
2021/01/30 03:28:55;;;;;;;1.50;1.40;;;17.10;53.10;;;;;;5051288;28;20197;-56
2021/01/30 03:31:21;;;;;;;1.33;1.00;;;17.10;53.10;;;;;;5051109;28;20209;-59
2021/01/30 03:33:47;;;;;;;1.02;0.90;;;17.10;53.10;;;;;;5085297;28;20282;-58
2021/01/30 03:36:12;;;;;;;1.23;1.05;;;17.10;53.10;;;;;;5067922;28;20998;-61
2021/01/30 03:38:38;;;;;;;1.65;1.20;;;17.10;53.10;;;;;;5085729;28;20281;-59
2021/01/30 03:41:04;;;;;;;1.00;0.90;;;17.10;53.10;;;;;;5085586;28;20189;-60
2021/01/30 03:43:30;;;;;;;1.30;1.15;;;17.10;53.10;;;;;;5067402;28;20174;-61
2021/01/30 03:45:55;;;;;;;1.73;1.13;;;17.00;53.00;;;;;;5085410;28;20653;-61
2021/01/30 03:48:21;;;;;;;1.10;1.00;;;17.00;53.00;;;;;;5085816;28;20177;-60
2021/01/30 03:50:46;;;;;;;1.13;1.02;;;17.00;53.00;;;;;;5085637;28;20284;-58
2021/01/30 03:53:12;;;;;;;1.10;0.90;;;17.00;53.10;;;;;;5085364;28;20181;-60
2021/01/30 03:55:38;;;;;;;1.40;1.25;;;17.00;53.00;;;;;;5085296;28;20635;-57
2021/01/30 03:58:04;;;;;;;1.55;1.10;;;17.00;53.00;;;;;;5085369;28;20253;-59
2021/01/30 04:00:30;;;;;;;1.00;0.90;;;16.90;53.00;;;;;;5085432;28;20202;-61
2021/01/30 04:02:55;;;;;;;0.85;0.85;;;17.00;53.10;;;;;;5085300;28;20198;-59
2021/01/30 04:05:23;;;;;;;1.15;1.05;;;16.90;53.00;;;;;;5085172;28;20178;-59
2021/01/30 04:07:49;;;;;;;1.10;1.00;;;16.90;53.00;;;;;;5085196;28;20574;-59
2021/01/30 04:10:17;;;;;;;1.00;0.90;;;17.00;53.10;;;;;;5085241;28;20196;-59
2021/01/30 04:12:43;;;;;;;1.00;1.00;;;16.90;53.00;;;;;;5085046;28;20197;-60
2021/01/30 04:15:11;;;;;;;1.10;0.80;;;17.00;53.10;;;;;;5084595;28;20200;-59
2021/01/30 04:17:37;;;;;;;2.30;1.20;;;16.90;53.00;;;;;;5085029;28;20177;-60
2021/01/30 04:20:04;;;;;;;1.23;1.00;;;16.90;53.00;;;;;;5084964;28;20643;-60
2021/01/30 04:22:29;;;;;;;1.23;1.10;;;16.90;53.10;;;;;;5084711;28;20185;-60
2021/01/30 04:24:55;;;;;;;1.45;1.35;;;16.90;53.10;;;;;;5084756;28;20177;-60
2021/01/30 04:27:20;;;;;;;1.10;1.00;;;16.90;53.00;;;;;;5084903;28;20174;-59
2021/01/30 04:29:46;;;;;;;1.20;0.90;;;16.80;53.00;;;;;;5084834;28;20645;-56
2021/01/30 04:32:12;;;;;;;0.88;0.82;;;16.90;53.00;;;;;;5084457;28;20588;-58
2021/01/30 04:34:37;;;;;;;1.42;1.30;;;16.80;53.00;;;;;;5084680;28;20184;-58
2021/01/30 04:37:04;;;;;;;1.08;1.00;;;16.90;53.10;;;;;;5084696;28;20641;-56
2021/01/30 04:39:29;;;;;;;1.10;1.00;;;16.80;53.00;;;;;;5084834;28;20174;-60
2021/01/30 04:42:04;;;;;;;1.20;1.10;;;16.80;53.00;;;;;;5084578;28;20644;-60
2021/01/30 04:44:43;;;;;;;1.27;1.17;;;16.80;53.00;;;;;;5084393;28;20202;-61
2021/01/30 04:47:17;;;;;;;0.90;0.90;;;16.80;53.00;;;;;;5051198;28;20181;-61
2021/01/30 04:49:54;;;;;;;1.20;1.10;;;16.80;52.90;;;;;;5084586;28;20654;-60
2021/01/30 04:52:55;;;;;;;1.60;1.50;;;16.80;53.00;;;;;;5050228;28;20204;-58
2021/01/30 04:55:40;;;;;;;1.00;1.00;;;16.80;53.00;;;;;;5066360;28;20181;-61
2021/01/30 04:58:15;;;;;;;0.80;0.70;;;16.70;53.00;;;;;;5084292;28;20185;-61
2021/01/30 05:01:11;;;;;;;1.10;1.00;;;16.70;53.00;;;;;;5084220;28;20169;-60
2021/01/30 05:03:58;;;;;;;1.10;1.00;;;16.70;53.00;;;;;;5084126;28;20213;-57
2021/01/30 05:06:47;;;;;;;1.10;1.00;;;16.70;53.00;;;;;;5066356;28;20185;-60
2021/01/30 05:09:19;;;;;;;2.17;1.02;;;16.70;53.00;;;;;;5068858;28;20529;-60
2021/01/30 05:11:58;;;;;;;1.38;0.77;;;16.70;53.00;;;;;;5066694;28;20273;-60
2021/01/30 05:14:25;;;;;;;1.35;1.25;;;16.70;53.00;;;;;;5051064;28;20178;-62
2021/01/30 05:17:12;;;;;;;1.38;1.05;;;16.70;53.00;;;;;;5066160;28;20642;-61
2021/01/30 05:19:42;;;;;;;1.02;1.00;;;16.70;53.10;;;;;;5065991;28;20260;-58
2021/01/30 05:22:09;;;;;;;0.80;0.80;;;16.60;53.00;;;;;;5049850;28;20677;-60
2021/01/30 05:24:34;;;;;;;0.90;0.90;;;16.70;53.10;;;;;;5049712;28;20545;-61
2021/01/30 05:27:33;;;;;;;0.93;0.85;;;16.60;53.00;;;;;;5085876;28;20177;-60
2021/01/30 05:30:09;;;;;;;0.95;0.90;;;16.60;53.00;;;;;;5087940;28;20294;-58
2021/01/30 05:32:41;;;;;;;0.80;0.80;;;16.60;52.90;;;;;;5070555;28;20341;-60
2021/01/30 05:35:14;;;;;;;0.93;0.93;;;16.60;53.00;;;;;;5054223;28;20268;-59
2021/01/30 05:37:45;;;;;;;0.90;0.90;;;16.60;53.00;;;;;;5069599;28;20185;-59
2021/01/30 05:40:23;;;;;;;0.80;0.80;;;16.60;53.00;;;;;;5088119;28;20207;-57
2021/01/30 05:43:10;;;;;;;0.82;0.82;;;16.60;53.00;;;;;;5088287;28;20253;-62
2021/01/30 05:45:44;;;;;;;0.80;0.80;;;16.60;53.00;;;;;;5055398;28;20235;-60
2021/01/30 05:48:15;;;;;;;1.20;1.00;;;16.50;53.00;;;;;;5069733;28;20170;-60
2021/01/30 05:50:46;;;;;;;1.08;1.00;;;16.50;52.90;;;;;;5087865;28;20286;-61
2021/01/30 05:53:13;;;;;;;0.73;0.73;;;16.50;52.90;;;;;;5087870;28;20635;-61
2021/01/30 05:55:39;;;;;;;1.00;0.90;;;16.60;53.00;;;;;;5087663;28;20220;-59
2021/01/30 05:58:09;;;;;;;1.10;1.00;;;16.50;53.20;;;;;;5087532;28;20700;-58
2021/01/30 06:00:35;;;;;;;0.98;0.70;;;16.50;53.00;;;;;;5087712;28;20166;-57
2021/01/30 06:03:11;;;;;;;0.90;0.90;;;16.50;52.90;;;;;;5087709;28;20189;-60
2021/01/30 06:05:38;;;;;;;0.80;0.80;;;16.50;52.90;;;;;;5087630;28;20169;-56
2021/01/30 06:08:30;;;;;;;1.02;0.90;;;16.60;52.90;;;;;;5087537;28;20212;-59
2021/01/30 06:11:07;;;;;;;0.80;0.80;;;16.60;53.10;;;;;;5075943;28;20217;-61
2021/01/30 06:13:32;;;;;;;0.90;0.90;;;16.70;53.20;;;;;;5052950;28;20201;-60
2021/01/30 06:15:59;;;;;;;0.80;0.80;;;16.90;53.10;;;;;;5069213;28;20658;-60
2021/01/30 06:18:34;;;;;;;0.70;0.70;;;17.00;52.80;;;;;;5087309;28;20189;-61
2021/01/30 06:21:18;;;;;;;1.40;0.80;;;17.20;52.70;;;;;;5087032;28;20209;-61
2021/01/30 06:24:07;;;;;;;1.00;0.90;;;17.40;52.40;;;;;;5087438;28;20510;-58
2021/01/30 06:26:37;;;;;;;1.00;0.90;;;17.60;52.10;;;;;;5087199;28;20232;-60
2021/01/30 06:29:04;;;;;;;1.38;1.00;;;17.70;51.90;;;;;;5052121;28;20288;-59
2021/01/30 06:31:33;;;;;;;0.77;0.77;;;17.80;51.80;;;;;;5052504;28;20305;-59
2021/01/30 06:34:19;;;;;;;0.98;0.73;;;17.80;52.30;;;;;;5087105;28;20572;-54
2021/01/30 06:36:48;;;;;;;0.63;0.63;;;17.90;51.50;;;;;;5068784;28;20172;-60
2021/01/30 06:39:14;;;;;;;0.60;0.60;;;18.00;51.40;;;;;;5086734;28;20528;-60
2021/01/30 06:41:40;;;;;;;1.05;0.82;;;18.00;51.30;;;;;;5068852;28;20666;-61
2021/01/30 06:44:28;;;;;;;0.75;0.70;;;18.10;51.10;;;;;;5051828;28;20182;-60
2021/01/30 06:47:19;;;;;;;0.85;0.60;;;18.10;51.00;;;;;;5068817;28;20177;-61
2021/01/30 06:49:55;;;;;;;0.60;0.60;;;18.20;51.00;;;;;;5071551;28;20212;-60
2021/01/30 06:52:26;;;;;;;0.98;0.80;;;18.20;50.90;;;;;;5086662;28;20322;-60
2021/01/30 06:55:04;;;;;;;0.60;0.60;;;18.30;50.90;;;;;;5086390;28;20547;-61
2021/01/30 06:57:39;;;;;;;0.70;0.70;;;18.40;50.90;;;;;;5086652;28;20231;-60
2021/01/30 07:00:24;;;;;;;0.55;0.55;;;18.40;50.80;;;;;;5052346;28;20172;-60
2021/01/30 07:02:52;;;;;;;0.70;0.60;;;18.40;50.70;;;;;;5052290;28;20173;-60
2021/01/30 07:05:46;;;;;;;1.25;0.60;;;18.30;50.70;;;;;;5052016;28;20243;-60
2021/01/30 07:08:36;;;;;;;0.68;0.68;;;18.30;50.70;;;;;;5086424;28;20178;-60
2021/01/30 07:11:44;;;;;;;0.80;0.80;;;18.20;50.90;;;;;;5067796;28;20211;-61
2021/01/30 07:14:52;;;;;;;0.47;0.47;;;18.10;51.10;;;;;;5068431;28;20185;-61
2021/01/30 07:17:20;;;;;;;0.60;0.60;;;18.00;51.20;;;;;;5038103;28;20288;-61
2021/01/30 07:20:07;;;;;;;0.60;0.60;;;17.90;51.40;;;;;;5086125;28;20300;-61
2021/01/30 07:22:49;;;;;;;0.80;0.80;;;17.80;51.50;;;;;;5069686;28;20170;-61
2021/01/30 07:25:19;;;;;;;0.70;0.70;;;17.70;51.60;;;;;;5068231;28;20209;-60
2021/01/30 07:27:48;;;;;;;0.63;0.63;;;17.70;51.80;;;;;;5068083;28;20193;-60
2021/01/30 07:30:19;;;;;;;0.65;0.65;;;17.60;51.70;;;;;;5051392;28;20166;-60
2021/01/30 07:32:59;;;;;;;0.55;0.55;;;17.60;51.80;;;;;;5051023;28;20205;-60
2021/01/30 07:35:29;;;;;;;0.80;0.80;;;17.60;51.80;;;;;;5051089;28;20585;-58
2021/01/30 07:38:12;;;;;;;0.80;0.80;;;17.60;51.90;;;;;;5051682;28;20293;-60
2021/01/30 07:40:58;;;;;;;0.43;0.43;;;17.60;51.90;;;;;;5085935;28;20173;-60
2021/01/30 07:43:34;;;;;;;0.70;0.70;;;17.60;51.90;;;;;;5085629;28;20185;-61
2021/01/30 07:46:13;;;;;;;0.70;0.70;;;17.50;51.90;;;;;;5067609;28;20515;-61
2021/01/30 07:48:45;;;;;;;0.52;0.52;;;17.50;51.90;;;;;;5085329;28;20272;-60
2021/01/30 07:51:11;;;;;;;0.60;0.60;;;17.40;52.00;;;;;;5050894;28;20214;-61
2021/01/30 07:53:37;;;;;;;0.70;0.70;;;17.40;52.10;;;;;;5067600;28;20174;-60
2021/01/30 07:56:12;;;;;;;0.70;0.60;;;17.40;52.10;;;;;;5067591;28;20181;-60
2021/01/30 07:58:43;;;;;;;0.52;0.52;;;17.40;52.10;;;;;;5085378;28;20223;-64
2021/01/30 08:01:14;;;;;;;0.93;0.80;;;17.40;52.20;;;;;;5051518;28;20635;-63
2021/01/30 08:03:59;;;;;;;0.75;0.75;;;17.40;52.20;;;;;;5066791;28;20298;-62
2021/01/30 08:06:42;;;;;;;0.75;0.75;;;17.40;52.20;;;;;;5051319;28;20177;-59
2021/01/30 08:09:19;;;;;;;1.85;0.98;;;17.40;52.20;;;;;;5085038;28;20173;-63
2021/01/30 08:12:05;;;;;;;4.65;1.20;;;17.40;52.40;;;;;;5067794;28;20205;-63
2021/01/30 08:14:45;;;;;;;1.15;0.82;;;17.40;52.60;;;;;;5069428;28;20173;-63
2021/01/30 08:17:29;;;;;;;0.88;0.80;;;17.30;52.60;;;;;;5066775;28;20200;-63
2021/01/30 08:20:00;;;;;;;0.80;0.80;;;17.30;52.90;;;;;;5051027;28;20639;-64
2021/01/30 08:22:51;;;;;;;1.40;0.90;;;17.30;53.00;;;;;;5050675;28;20260;-63
2021/01/30 08:25:41;;;;;;;1.67;0.73;;;17.30;53.00;;;;;;5050991;28;20359;-63
2021/01/30 08:28:18;;;;;;;2.25;1.00;;;17.30;53.00;;;;;;5068530;28;21120;-64
2021/01/30 08:30:44;;;;;;;2.50;0.90;;;17.30;53.20;;;;;;5066600;28;20526;-63
2021/01/30 08:33:10;;;;;;;0.70;0.70;;;17.40;53.10;;;;;;5066977;28;20178;-63
2021/01/30 08:35:41;;;;;;;0.80;0.80;;;17.40;53.00;;;;;;5066455;28;20173;-63
2021/01/30 08:38:17;;;;;;;1.38;0.98;;;17.40;52.90;;;;;;5084338;28;20639;-63
2021/01/30 08:40:43;;;;;;;4.05;0.80;;;17.40;53.00;;;;;;5084496;28;20165;-64
2021/01/30 08:43:09;;;;;;;1.20;1.10;;;17.40;53.00;;;;;;5084437;28;20166;-63
2021/01/30 08:45:34;;;;;;;1.98;1.08;;;17.40;53.20;;;;;;5066169;28;20175;-63
2021/01/30 08:48:26;;;;;;;0.82;0.70;;;17.30;53.20;;;;;;5066271;28;20178;-63
2021/01/30 08:50:52;;;;;;;2.70;1.30;;;17.30;53.20;;;;;;5066251;28;20686;-63
2021/01/30 08:53:24;;;;;;;1.35;0.75;;;17.40;53.10;;;;;;5084486;28;20511;-64
2021/01/30 08:56:00;;;;;;;1.73;1.40;;;17.40;53.00;;;;;;5084148;28;20185;-62
2021/01/30 08:58:37;;;;;;;0.82;0.70;;;17.40;52.90;;;;;;5066147;28;20279;-64
2021/01/30 09:01:36;;;;;;;1.10;1.00;;;17.40;53.00;;;;;;5083076;28;20604;-63
2021/01/30 09:04:02;;;;;;;2.05;1.13;;;17.40;52.90;;;;;;5066054;28;20208;-64
2021/01/30 09:06:39;;;;;;;1.70;0.95;;;17.40;52.90;;;;;;5084372;28;20173;-64
2021/01/30 09:09:05;;;;;;;1.25;1.20;;;17.40;53.00;;;;;;5083946;28;20180;-64
2021/01/30 09:11:42;;;;;;;2.85;1.13;;;17.40;53.00;;;;;;5083846;28;20581;-64
2021/01/30 09:14:14;;;;;;;1.60;0.98;;;17.40;52.90;;;;;;5084543;28;20662;-61
2021/01/30 09:16:54;;;;;;;1.17;1.08;;;17.40;53.10;;;;;;5084206;28;20170;-63
2021/01/30 09:19:45;;;;;;;1.35;0.90;;;17.40;53.10;;;;;;5083376;28;20162;-63
2021/01/30 09:22:22;;;;;;;3.22;0.95;;;17.40;52.70;;;;;;5083930;28;20174;-62
2021/01/30 09:25:06;;;;;;;0.68;0.68;;;17.50;52.80;;;;;;5066115;28;20174;-64
2021/01/30 09:27:33;;;;;;;2.33;0.70;;;17.70;52.60;;;;;;5065593;28;20195;-62
2021/01/30 09:30:27;;;;;;;1.17;0.90;;;17.90;52.30;;;;;;5083629;28;20170;-62
2021/01/30 09:32:52;;;;;;;1.13;0.80;;;18.40;51.70;;;;;;5074214;28;20580;-63
2021/01/30 09:35:20;;;;;;;0.80;0.80;;;18.70;51.20;;;;;;5083593;28;20178;-63
2021/01/30 09:37:47;;;;;;;0.80;0.80;;;19.00;50.60;;;;;;5049298;28;20180;-64
2021/01/30 09:40:24;;;;;;;0.70;0.60;;;19.20;50.30;;;;;;5083841;28;20250;-64
2021/01/30 09:43:06;;;;;;;0.80;0.77;;;19.50;49.90;;;;;;5084411;28;20192;-64
2021/01/30 09:45:31;;;;;;;0.77;0.70;;;19.60;49.60;;;;;;5074074;28;20529;-64
2021/01/30 09:47:57;;;;;;;1.85;0.90;;;19.80;49.40;;;;;;5076759;28;20175;-63
2021/01/30 09:50:33;;;;;;;2.00;0.68;;;19.90;49.40;;;;;;5085639;28;20173;-65
2021/01/30 09:53:07;;;;;;;2.28;0.70;;;19.90;49.20;;;;;;5068650;28;20235;-62
2021/01/30 09:55:33;;;;;;;0.82;0.65;;;20.00;49.30;;;;;;5050187;28;20914;-63
2021/01/30 09:58:07;;;;;;;0.75;0.75;;;20.00;49.20;;;;;;5049274;28;20685;-60
2021/01/30 10:00:34;;;;;;;1.88;0.70;;;20.00;49.30;;;;;;5059307;28;20181;-62
2021/01/30 10:03:06;;;;;;;1.48;0.90;;;19.90;49.40;;;;;;5104096;28;20173;-63
2021/01/30 10:05:32;;;;;;;1.25;0.70;;;19.90;49.50;;;;;;5085559;28;20627;-62
2021/01/30 10:07:57;;;;;;;1.80;1.00;;;19.90;49.60;;;;;;5103990;28;20278;-63
2021/01/30 10:10:24;;;;;;;0.70;0.52;;;19.90;49.70;;;;;;5104013;28;20596;-62
2021/01/30 10:12:49;;;;;;;1.85;0.90;;;19.80;49.80;;;;;;5105339;28;20257;-64
2021/01/30 10:15:26;;;;;;;1.35;0.90;;;19.80;49.90;;;;;;5072456;28;20177;-62
2021/01/30 10:17:51;;;;;;;0.95;0.60;;;19.80;49.80;;;;;;5077884;28;20234;-63
2021/01/30 10:20:17;;;;;;;0.70;0.60;;;19.70;50.10;;;;;;5069070;28;20170;-62
2021/01/30 10:22:47;;;;;;;1.30;0.80;;;19.60;50.20;;;;;;5087019;28;20240;-61
2021/01/30 10:25:17;;;;;;;1.77;0.60;;;19.60;50.30;;;;;;5087000;28;20201;-61
2021/01/30 10:27:43;;;;;;;1.25;0.70;;;19.60;50.40;;;;;;5086873;28;20727;-61
2021/01/30 10:30:10;;;;;;;2.45;0.85;;;19.60;50.40;;;;;;5069027;28;20291;-63
2021/01/30 10:32:39;;;;;;;1.00;0.60;;;19.60;50.40;;;;;;5068816;28;20210;-56
2021/01/30 10:35:16;;;;;;;1.10;0.73;;;19.70;50.30;;;;;;5086961;28;20180;-60
2021/01/30 10:37:46;;;;;;;2.03;1.02;;;19.60;50.30;;;;;;5053292;28;20173;-62
2021/01/30 10:40:21;;;;;;;2.05;0.88;;;19.70;50.40;;;;;;5052621;28;20534;-62
2021/01/30 10:42:46;;;;;;;1.38;0.70;;;19.70;50.30;;;;;;5068801;28;20581;-59
2021/01/30 10:45:18;;;;;;;1.38;0.60;;;19.70;50.20;;;;;;5068588;28;20735;-62
2021/01/30 10:47:46;;;;;;;1.65;1.00;;;19.80;50.20;;;;;;5068456;28;20173;-62
2021/01/30 10:50:16;;;;;;;1.35;0.90;;;19.80;50.30;;;;;;5068160;28;20255;-61
2021/01/30 10:52:41;;;;;;;0.65;0.63;;;19.80;50.30;;;;;;5059548;28;20311;-61
2021/01/30 10:55:34;;;;;;;2.72;1.02;;;19.90;50.30;;;;;;5084854;28;20190;-62
2021/01/30 10:58:19;;;;;;;1.27;0.80;;;19.90;50.10;;;;;;5084248;28;20222;-63
2021/01/30 11:01:08;;;;;;;1.50;0.60;;;20.00;50.10;;;;;;5084848;28;20227;-61
2021/01/30 11:03:53;;;;;;;1.17;1.08;;;19.90;50.10;;;;;;5065414;28;20212;-60
2021/01/30 11:06:32;;;;;;;2.38;0.70;;;20.00;50.10;;;;;;5066245;28;20178;-61
2021/01/30 11:09:00;;;;;;;3.38;0.77;;;20.00;50.00;;;;;;5065451;28;20207;-60
2021/01/30 11:11:29;;;;;;;1.48;0.60;;;19.90;50.10;;;;;;5067282;28;20670;-62
2021/01/30 11:13:55;;;;;;;0.50;0.50;;;20.00;50.10;;;;;;5067599;28;20674;-64
2021/01/30 11:16:41;;;;;;;1.38;1.02;;;20.00;50.20;;;;;;5067649;28;20693;-63
2021/01/30 11:19:25;;;;;;;0.98;0.70;;;19.90;50.10;;;;;;5085422;28;20186;-62
2021/01/30 11:22:14;;;;;;;1.40;0.70;;;19.90;50.20;;;;;;5084635;28;21008;-61
2021/01/30 11:24:47;;;;;;;1.13;0.60;;;19.90;50.30;;;;;;5084749;28;20250;-63
2021/01/30 11:27:36;;;;;;;2.00;0.73;;;19.90;50.30;;;;;;5085272;28;20929;-61
2021/01/30 11:30:18;;;;;;;2.60;0.95;;;19.90;50.40;;;;;;5085630;28;20219;-62
2021/01/30 11:32:51;;;;;;;0.77;0.60;;;19.80;50.60;;;;;;5085810;28;20202;-63
2021/01/30 11:35:34;;;;;;;2.10;0.75;;;19.80;50.60;;;;;;5067699;28;20177;-62
2021/01/30 11:38:10;;;;;;;1.25;0.70;;;19.80;50.60;;;;;;5069718;28;20205;-63
2021/01/30 11:40:35;;;;;;;0.60;0.50;;;19.80;50.70;;;;;;5067482;28;20170;-63
2021/01/30 11:43:01;;;;;;;1.30;0.82;;;19.70;50.80;;;;;;5085770;28;20177;-64
2021/01/30 11:45:26;;;;;;;1.02;0.80;;;19.70;50.90;;;;;;5085471;28;20257;-61
2021/01/30 11:47:52;;;;;;;1.63;0.90;;;19.60;51.00;;;;;;5085784;28;20181;-60
2021/01/30 11:50:18;;;;;;;0.57;0.57;;;19.60;51.00;;;;;;5085517;28;20535;-62
2021/01/30 11:52:43;;;;;;;1.52;0.80;;;19.50;51.10;;;;;;5102862;28;20654;-66
2021/01/30 11:55:09;;;;;;;1.95;0.90;;;19.50;50.80;;;;;;5106048;28;20177;-62
2021/01/30 11:57:35;;;;;;;2.35;1.00;;;19.60;51.10;;;;;;5105654;28;20177;-64
2021/01/30 12:00:00;;;;;;;0.70;0.70;;;19.50;50.90;;;;;;5105733;28;20177;-61
2021/01/30 12:02:30;;;;;;;0.63;0.63;;;19.50;50.90;;;;;;5105763;28;20234;-56
2021/01/30 12:04:56;;;;;;;0.98;0.60;;;19.50;50.90;;;;;;5070240;28;20318;-62
2021/01/30 12:07:21;;;;;;;1.17;0.75;;;19.60;50.90;;;;;;5105697;28;20207;-61
2021/01/30 12:09:47;;;;;;;0.88;0.80;;;19.60;50.90;;;;;;5105436;28;20265;-60
2021/01/30 12:12:13;;;;;;;1.13;0.70;;;19.60;50.70;;;;;;5105169;28;21047;-61
2021/01/30 12:14:38;;;;;;;1.65;0.70;;;19.60;50.70;;;;;;5105261;28;20196;-61
2021/01/30 12:17:04;;;;;;;1.02;0.63;;;19.60;50.80;;;;;;5105185;28;20179;-61
2021/01/30 12:19:30;;;;;;;1.85;0.68;;;19.60;50.80;;;;;;5087169;28;20177;-56
2021/01/30 12:21:56;;;;;;;1.77;0.90;;;19.60;50.90;;;;;;5105156;28;20177;-63
2021/01/30 12:24:21;;;;;;;1.15;0.77;;;19.60;50.90;;;;;;5105325;28;20505;-60
2021/01/30 12:26:47;;;;;;;0.93;0.70;;;19.50;51.00;;;;;;5105244;28;20217;-60
2021/01/30 12:29:12;;;;;;;0.77;0.60;;;19.40;51.10;;;;;;5086803;28;20189;-62
2021/01/30 12:31:38;;;;;;;1.48;0.60;;;19.30;51.20;;;;;;5104793;28;20207;-58
2021/01/30 12:34:03;;;;;;;2.00;0.82;;;19.30;51.30;;;;;;5104897;28;20315;-60
2021/01/30 12:36:29;;;;;;;0.98;0.80;;;19.30;51.70;;;;;;5099806;28;20210;-63
2021/01/30 12:38:54;;;;;;;2.25;0.80;;;19.30;51.30;;;;;;5083724;28;21050;-62
2021/01/30 12:41:20;;;;;;;0.73;0.65;;;19.30;51.40;;;;;;5083403;28;20984;-62
2021/01/30 12:43:46;;;;;;;1.73;0.85;;;19.30;51.40;;;;;;5083632;28;20173;-62
2021/01/30 12:46:11;;;;;;;3.63;0.80;;;19.30;51.40;;;;;;5083754;28;20826;-63
2021/01/30 12:48:37;;;;;;;0.93;0.88;;;19.30;51.50;;;;;;5083515;28;20513;-64
2021/01/30 12:51:03;;;;;;;1.05;0.63;;;19.40;51.50;;;;;;5086051;28;20256;-62
2021/01/30 12:53:28;;;;;;;1.08;0.57;;;19.40;51.40;;;;;;5083418;28;20643;-61
2021/01/30 12:55:54;;;;;;;2.92;0.90;;;19.40;51.30;;;;;;5083387;28;20206;-61
2021/01/30 12:58:24;;;;;;;0.50;0.50;;;19.50;51.40;;;;;;5083302;28;20210;-61
2021/01/30 13:00:50;;;;;;;1.25;0.77;;;19.40;51.30;;;;;;5083327;28;20611;-62
2021/01/30 13:03:16;;;;;;;1.02;0.68;;;19.40;51.40;;;;;;5084142;28;20260;-62
2021/01/30 13:05:42;;;;;;;1.15;0.70;;;19.40;51.50;;;;;;5066037;28;20239;-62
2021/01/30 13:08:08;;;;;;;0.63;0.50;;;19.30;51.50;;;;;;5083912;28;20261;-62
2021/01/30 13:10:34;;;;;;;0.82;0.82;;;19.30;51.60;;;;;;5083770;28;20264;-61
2021/01/30 13:12:59;;;;;;;0.80;0.63;;;19.30;51.70;;;;;;5083392;28;20201;-63